Time;durP1;ratioP1;P1;durP2;ratioP2;P2;SDS_P1;SDS_P2;PMS_P1;PMS_P2;Temp;Humidity;BMP_temperature;BMP_pressure;BME280_temperature;BME280_humidity;BME280_pressure;Samples;Min_cycle;Max_cycle;Signal;HPM_P1;HPM_P2
2022/04/17 00:01:40;;;;;;;;;;;25.10;36.20;;;;;;5093093;28;967;-38
2022/04/17 00:04:10;;;;;;;;;;;25.10;36.20;;;;;;5093215;28;997;-38
2022/04/17 00:06:37;;;;;;;;;;;25.20;36.30;;;;;;5094094;28;928;-37
2022/04/17 00:09:04;;;;;;;;;;;25.20;36.20;;;;;;5095837;28;988;-39
2022/04/17 00:11:31;;;;;;;;;;;25.20;36.20;;;;;;5095450;28;1436;-38
2022/04/17 00:13:59;;;;;;;;;;;25.20;36.20;;;;;;5095322;28;1042;-37
2022/04/17 00:16:27;;;;;;;;;;;25.20;36.10;;;;;;5094487;28;2091;-38
2022/04/17 00:18:54;;;;;;;;;;;25.20;36.10;;;;;;5094573;28;975;-38
2022/04/17 00:21:22;;;;;;;;;;;25.20;36.10;;;;;;5094558;28;955;-37
2022/04/17 00:23:49;;;;;;;;;;;25.20;36.10;;;;;;5094361;28;1140;-37
2022/04/17 00:26:16;;;;;;;;;;;25.20;36.10;;;;;;5094066;28;999;-38
2022/04/17 00:28:43;;;;;;;;;;;25.20;36.10;;;;;;5093946;28;996;-38
2022/04/17 00:31:10;;;;;;;;;;;25.20;36.20;;;;;;5093404;28;936;-39
2022/04/17 00:33:38;;;;;;;;;;;25.20;36.10;;;;;;5094593;28;986;-39
2022/04/17 00:36:05;;;;;;;;;;;25.20;36.00;;;;;;5094825;28;1914;-37
2022/04/17 00:38:31;;;;;;;;;;;25.20;36.10;;;;;;5094320;28;1048;-36
2022/04/17 00:40:58;;;;;;;;;;;25.20;36.10;;;;;;5093824;28;885;-38
2022/04/17 00:43:26;;;;;;;;;;;25.20;36.10;;;;;;5094438;28;1018;-37
2022/04/17 00:45:53;;;;;;;;;;;25.20;36.10;;;;;;5094554;28;993;-37
2022/04/17 00:48:20;;;;;;;;;;;25.20;36.00;;;;;;5094387;28;1010;-41
2022/04/17 00:50:49;;;;;;;;;;;25.30;36.10;;;;;;5094540;28;1009;-41
2022/04/17 00:53:17;;;;;;;;;;;25.30;36.10;;;;;;5092680;28;1920;-40
2022/04/17 00:55:43;;;;;;;;;;;25.30;36.20;;;;;;5093974;28;1975;-39
2022/04/17 00:58:10;;;;;;;;;;;25.30;36.20;;;;;;5093295;28;946;-38
2022/04/17 01:00:37;;;;;;;;;;;25.20;36.10;;;;;;5093911;28;925;-39
2022/04/17 01:03:04;;;;;;;;;;;25.20;36.20;;;;;;5094311;28;1768;-39
2022/04/17 01:05:30;;;;;;;;;;;25.20;36.20;;;;;;5094928;28;896;-39
2022/04/17 01:07:59;;;;;;;;;;;25.20;36.30;;;;;;5094342;28;860;-38
2022/04/17 01:10:26;;;;;;;;;;;25.20;36.20;;;;;;5094455;28;951;-38
2022/04/17 01:12:54;;;;;;;;;;;25.20;36.20;;;;;;5093345;28;983;-37
2022/04/17 01:15:20;;;;;;;;;;;25.20;36.30;;;;;;5094112;28;1906;-39
2022/04/17 01:17:47;;;;;;;;;;;25.20;36.20;;;;;;5093102;28;963;-38
2022/04/17 01:20:16;;;;;;;;;;;25.10;36.20;;;;;;5093012;28;988;-40
2022/04/17 01:22:47;;;;;;;;;;;25.20;36.40;;;;;;5093208;28;1320;-37
2022/04/17 01:27:58;;;;;;;;;;;25.10;36.50;;;;;;5092785;28;907;-42
2022/04/17 01:30:25;;;;;;;;;;;25.10;36.50;;;;;;5093117;28;865;-38
2022/04/17 01:32:51;;;;;;;;;;;25.00;36.40;;;;;;5093679;28;905;-39
2022/04/17 01:35:18;;;;;;;;;;;25.00;36.50;;;;;;5092958;28;1983;-39
2022/04/17 01:37:48;;;;;;;;;;;25.00;36.60;;;;;;5093625;28;976;-39
2022/04/17 01:40:15;;;;;;;;;;;25.00;36.60;;;;;;5092104;28;1023;-40
2022/04/17 01:42:42;;;;;;;;;;;24.90;36.60;;;;;;5093069;28;983;-37
2022/04/17 01:45:10;;;;;;;;;;;24.90;36.70;;;;;;5094007;28;998;-38
2022/04/17 01:47:37;;;;;;;;;;;24.90;36.80;;;;;;5093264;28;995;-38
2022/04/17 01:50:04;;;;;;;;;;;24.90;36.80;;;;;;5093179;28;899;-41
2022/04/17 01:52:31;;;;;;;;;;;24.80;36.90;;;;;;5092857;28;987;-38
2022/04/17 01:54:59;;;;;;;;;;;24.80;37.00;;;;;;5094338;28;1984;-39
2022/04/17 01:57:26;;;;;;;;;;;24.80;37.10;;;;;;5093160;28;959;-37
2022/04/17 01:59:52;;;;;;;;;;;24.80;37.20;;;;;;5093564;28;923;-40
2022/04/17 02:02:19;;;;;;;;;;;24.70;37.10;;;;;;5092638;28;984;-39
2022/04/17 02:04:46;;;;;;;;;;;24.70;37.20;;;;;;5092985;28;1063;-39
2022/04/17 02:07:14;;;;;;;;;;;24.70;37.30;;;;;;5094053;28;950;-40
2022/04/17 02:09:40;;;;;;;;;;;24.60;37.30;;;;;;5094647;28;956;-37
2022/04/17 02:12:09;;;;;;;;;;;24.60;37.40;;;;;;5096758;28;1854;-37
2022/04/17 02:14:35;;;;;;;;;;;24.60;37.30;;;;;;5097616;28;997;-37
2022/04/17 02:17:02;;;;;;;;;;;24.60;37.40;;;;;;5097039;28;1902;-37
2022/04/17 02:19:29;;;;;;;;;;;24.60;37.30;;;;;;5099625;28;1020;-37
2022/04/17 02:21:56;;;;;;;;;;;24.60;37.40;;;;;;5097913;28;878;-40
2022/04/17 02:24:23;;;;;;;;;;;24.60;37.40;;;;;;5098657;28;1015;-37
2022/04/17 02:26:49;;;;;;;;;;;24.50;37.40;;;;;;5097925;28;1104;-37
2022/04/17 02:29:17;;;;;;;;;;;24.50;37.50;;;;;;5097739;28;992;-43
2022/04/17 02:31:44;;;;;;;;;;;24.50;37.40;;;;;;5097971;28;1119;-42
2022/04/17 02:34:11;;;;;;;;;;;24.50;37.50;;;;;;5097326;28;955;-40
2022/04/17 02:36:37;;;;;;;;;;;24.50;37.50;;;;;;5098147;28;1906;-42
2022/04/17 02:39:04;;;;;;;;;;;24.50;37.50;;;;;;5097311;28;1212;-38
2022/04/17 02:41:31;;;;;;;;;;;24.50;37.60;;;;;;5096968;28;857;-38
2022/04/17 02:43:58;;;;;;;;;;;24.50;37.70;;;;;;5096370;28;976;-37
2022/04/17 02:49:11;;;;;;;;;;;24.50;37.60;;;;;;5097187;28;605;-41
2022/04/17 02:51:37;;;;;;;;;;;24.40;37.70;;;;;;5095879;28;995;-40
2022/04/17 02:54:04;;;;;;;;;;;24.40;37.70;;;;;;5096698;28;977;-38
2022/04/17 02:56:31;;;;;;;;;;;24.40;37.70;;;;;;5097421;28;1902;-39
2022/04/17 02:58:58;;;;;;;;;;;24.40;37.70;;;;;;5096442;28;932;-40
2022/04/17 03:06:55;;;;;;;;;;;24.40;37.90;;;;;;5096629;28;636;-38
2022/04/17 03:09:22;;;;;;;;;;;24.30;38.00;;;;;;5096967;28;940;-39
2022/04/17 03:11:48;;;;;;;;;;;24.30;37.90;;;;;;5096292;28;1144;-38
2022/04/17 03:14:15;;;;;;;;;;;24.30;38.10;;;;;;5096295;28;1009;-38
2022/04/17 03:16:43;;;;;;;;;;;24.30;38.10;;;;;;5096664;28;1906;-38
2022/04/17 03:19:10;;;;;;;;;;;24.30;37.90;;;;;;5095294;28;992;-38
2022/04/17 03:21:37;;;;;;;;;;;24.30;38.00;;;;;;5095917;28;989;-39
2022/04/17 03:24:03;;;;;;;;;;;24.30;38.10;;;;;;5095810;28;924;-39
2022/04/17 03:26:30;;;;;;;;;;;24.30;38.10;;;;;;5096592;28;1032;-38
2022/04/17 03:28:59;;;;;;;;;;;24.30;38.00;;;;;;5096465;28;1034;-38
2022/04/17 03:31:26;;;;;;;;;;;24.30;38.00;;;;;;5096322;28;924;-38
2022/04/17 03:33:54;;;;;;;;;;;24.30;38.10;;;;;;5096595;28;992;-37
2022/04/17 03:36:21;;;;;;;;;;;24.30;38.00;;;;;;5096327;28;1973;-39
2022/04/17 03:38:48;;;;;;;;;;;24.30;38.10;;;;;;5095372;28;1160;-40
2022/04/17 03:41:15;;;;;;;;;;;24.30;38.10;;;;;;5095303;28;1012;-42
2022/04/17 03:43:42;;;;;;;;;;;24.30;38.10;;;;;;5094651;28;948;-43
2022/04/17 03:46:09;;;;;;;;;;;24.30;38.20;;;;;;5094910;28;1001;-42
2022/04/17 03:48:36;;;;;;;;;;;24.20;38.10;;;;;;5096060;28;1075;-38
2022/04/17 03:51:04;;;;;;;;;;;24.20;38.10;;;;;;5097164;28;1878;-39
2022/04/17 03:53:31;;;;;;;;;;;24.20;38.10;;;;;;5096269;28;901;-38
2022/04/17 03:55:57;;;;;;;;;;;24.20;38.10;;;;;;5094928;28;1901;-38
2022/04/17 03:58:24;;;;;;;;;;;24.20;38.30;;;;;;5095050;28;993;-39
2022/04/17 04:00:51;;;;;;;;;;;24.20;38.20;;;;;;5094641;28;984;-39
2022/04/17 04:03:18;;;;;;;;;;;24.20;38.20;;;;;;5094432;28;1004;-39
2022/04/17 04:05:45;;;;;;;;;;;24.20;38.30;;;;;;5094476;28;970;-37
2022/04/17 04:08:13;;;;;;;;;;;24.20;38.40;;;;;;5094197;28;985;-39
2022/04/17 04:10:39;;;;;;;;;;;24.20;38.30;;;;;;5094635;28;932;-42
2022/04/17 04:13:06;;;;;;;;;;;24.20;38.20;;;;;;5095119;28;1020;-41
2022/04/17 04:15:33;;;;;;;;;;;24.20;38.30;;;;;;5094359;28;947;-38
2022/04/17 04:18:00;;;;;;;;;;;24.20;38.20;;;;;;5094699;28;1897;-39
2022/04/17 04:20:26;;;;;;;;;;;24.20;38.30;;;;;;5094477;28;997;-38
2022/04/17 04:22:55;;;;;;;;;;;24.20;38.40;;;;;;5094415;28;934;-40
2022/04/17 04:25:23;;;;;;;;;;;24.20;38.30;;;;;;5093593;28;996;-41
2022/04/17 04:30:34;;;;;;;;;;;24.20;38.40;;;;;;5093886;28;888;-40
2022/04/17 04:33:01;;;;;;;;;;;24.20;38.40;;;;;;5094039;28;865;-39
2022/04/17 04:35:29;;;;;;;;;;;24.20;38.30;;;;;;5094564;28;1093;-40
2022/04/17 04:37:56;;;;;;;;;;;24.10;38.30;;;;;;5094819;28;1905;-41
2022/04/17 04:40:24;;;;;;;;;;;24.20;38.40;;;;;;5093791;28;1204;-41
2022/04/17 04:42:56;;;;;;;;;;;24.20;38.30;;;;;;5095560;28;944;-40
2022/04/17 04:48:07;;;;;;;;;;;24.10;38.30;;;;;;5095245;28;616;-40
2022/04/17 04:50:34;;;;;;;;;;;24.10;38.40;;;;;;5094558;28;988;-39
2022/04/17 04:53:01;;;;;;;;;;;24.20;38.30;;;;;;5095776;28;932;-37
2022/04/17 04:55:30;;;;;;;;;;;24.20;38.40;;;;;;5093798;28;1320;-37
2022/04/17 04:57:56;;;;;;;;;;;24.10;38.40;;;;;;5092993;28;1906;-39
2022/04/17 05:00:23;;;;;;;;;;;24.20;38.50;;;;;;5093424;28;1020;-37
2022/04/17 05:02:50;;;;;;;;;;;24.10;38.40;;;;;;5093175;28;967;-38
2022/04/17 05:05:17;;;;;;;;;;;24.20;38.50;;;;;;5094261;28;998;-37
2022/04/17 05:07:43;;;;;;;;;;;24.10;38.50;;;;;;5094309;28;1844;-38
2022/04/17 05:10:10;;;;;;;;;;;24.20;38.60;;;;;;5094426;28;1003;-38
2022/04/17 05:12:38;;;;;;;;;;;24.10;38.50;;;;;;5093486;28;1011;-39
2022/04/17 05:15:05;;;;;;;;;;;24.10;38.60;;;;;;5093336;28;916;-37
2022/04/17 05:17:32;;;;;;;;;;;24.10;38.60;;;;;;5093548;28;1905;-37
2022/04/17 05:19:59;;;;;;;;;;;24.10;38.60;;;;;;5093955;28;1042;-38
2022/04/17 05:22:31;;;;;;;;;;;24.10;38.60;;;;;;5094182;28;970;-36
2022/04/17 05:24:58;;;;;;;;;;;24.10;38.60;;;;;;5093125;28;1800;-37
2022/04/17 05:27:24;;;;;;;;;;;24.10;38.60;;;;;;5093530;28;951;-37
2022/04/17 05:29:52;;;;;;;;;;;24.10;38.60;;;;;;5093449;28;1064;-36
2022/04/17 05:32:19;;;;;;;;;;;24.10;39.80;;;;;;5093614;28;1038;-38
2022/04/17 05:34:46;;;;;;;;;;;24.10;38.60;;;;;;5093075;28;995;-36
2022/04/17 05:37:13;;;;;;;;;;;24.10;39.80;;;;;;5093869;28;1909;-37
2022/04/17 05:39:39;;;;;;;;;;;24.10;38.70;;;;;;5091442;28;989;-38
2022/04/17 05:42:06;;;;;;;;;;;24.00;38.60;;;;;;5091978;28;992;-36
2022/04/17 05:44:33;;;;;;;;;;;24.00;38.70;;;;;;5092186;28;936;-39
2022/04/17 05:47:01;;;;;;;;;;;24.10;38.70;;;;;;5097631;28;932;-37
2022/04/17 05:49:27;;;;;;;;;;;24.10;38.70;;;;;;5096532;28;1111;-38
2022/04/17 05:51:56;;;;;;;;;;;24.10;38.80;;;;;;5096180;28;1038;-34
2022/04/17 05:54:23;;;;;;;;;;;24.10;38.90;;;;;;5094814;28;1968;-38
2022/04/17 05:56:50;;;;;;;;;;;24.10;38.80;;;;;;5095919;28;1973;-39
2022/04/17 05:59:16;;;;;;;;;;;24.10;38.90;;;;;;5094506;28;988;-37
2022/04/17 06:01:43;;;;;;;;;;;24.10;38.90;;;;;;5094638;28;919;-36
2022/04/17 06:04:11;;;;;;;;;;;24.10;38.90;;;;;;5095061;28;913;-39
2022/04/17 06:06:41;;;;;;;;;;;24.10;38.90;;;;;;5096736;28;1005;-37
2022/04/17 06:09:08;;;;;;;;;;;24.10;39.00;;;;;;5095529;28;992;-39
2022/04/17 06:11:35;;;;;;;;;;;24.00;38.90;;;;;;5095887;28;940;-37
2022/04/17 06:14:02;;;;;;;;;;;24.00;38.90;;;;;;5096661;28;971;-39
2022/04/17 06:16:28;;;;;;;;;;;24.10;38.90;;;;;;5097389;28;1907;-39
2022/04/17 06:18:55;;;;;;;;;;;24.10;38.90;;;;;;5096979;28;931;-38
2022/04/17 06:21:23;;;;;;;;;;;24.00;38.90;;;;;;5096359;28;915;-37
2022/04/17 06:23:50;;;;;;;;;;;24.00;39.00;;;;;;5092786;28;1004;-36
2022/04/17 06:26:17;;;;;;;;;;;24.00;39.00;;;;;;5084143;28;906;-36
2022/04/17 06:28:43;;;;;;;;;;;24.00;39.00;;;;;;5086395;28;988;-39
2022/04/17 06:31:10;;;;;;;;;;;24.00;39.20;;;;;;5094293;28;1000;-39
2022/04/17 06:33:37;;;;;;;;;;;24.00;39.10;;;;;;5094358;28;972;-38
2022/04/17 06:36:04;;;;;;;;;;;24.00;39.20;;;;;;5094363;28;1766;-36
2022/04/17 06:38:32;;;;;;;;;;;24.10;39.10;;;;;;5092640;28;1987;-37
2022/04/17 06:40:59;;;;;;;;;;;24.00;39.10;;;;;;5094188;28;1018;-37
2022/04/17 06:43:25;;;;;;;;;;;24.00;39.20;;;;;;5094497;28;919;-38
2022/04/17 06:45:52;;;;;;;;;;;24.00;39.20;;;;;;5094292;28;979;-36
2022/04/17 06:48:21;;;;;;;;;;;24.10;39.20;;;;;;5093109;28;897;-39
2022/04/17 06:50:48;;;;;;;;;;;24.00;39.10;;;;;;5094334;28;1894;-38
2022/04/17 06:53:15;;;;;;;;;;;24.10;39.20;;;;;;5092944;28;1025;-38
2022/04/17 06:55:43;;;;;;;;;;;24.00;39.20;;;;;;5093978;28;994;-37
2022/04/17 06:58:10;;;;;;;;;;;24.00;39.30;;;;;;5093883;28;1996;-36
2022/04/17 07:00:38;;;;;;;;;;;24.00;39.20;;;;;;5094058;28;962;-37
2022/04/17 07:03:05;;;;;;;;;;;24.00;39.40;;;;;;5094275;28;955;-37
2022/04/17 07:05:32;;;;;;;;;;;24.00;39.30;;;;;;5093532;28;872;-38
2022/04/17 07:07:59;;;;;;;;;;;24.00;39.30;;;;;;5094552;28;977;-37
2022/04/17 07:10:26;;;;;;;;;;;24.00;39.40;;;;;;5093878;28;1012;-37
2022/04/17 07:12:54;;;;;;;;;;;24.00;39.40;;;;;;5094517;28;991;-37
2022/04/17 07:15:22;;;;;;;;;;;24.00;39.30;;;;;;5094389;28;911;-40
2022/04/17 07:17:49;;;;;;;;;;;24.00;39.30;;;;;;5092918;28;1992;-40
2022/04/17 07:20:17;;;;;;;;;;;24.00;39.40;;;;;;5093129;28;1033;-36
2022/04/17 07:22:44;;;;;;;;;;;24.00;39.40;;;;;;5092600;28;885;-38
2022/04/17 07:25:12;;;;;;;;;;;24.00;39.40;;;;;;5093593;28;1021;-34
2022/04/17 07:27:39;;;;;;;;;;;24.10;39.40;;;;;;5092398;28;940;-37
2022/04/17 07:30:14;;;;;;;;;;;24.00;39.40;;;;;;5091643;28;911;-37
2022/04/17 07:32:41;;;;;;;;;;;24.00;39.50;;;;;;5091855;28;862;-36
2022/04/17 07:35:09;;;;;;;;;;;24.10;39.50;;;;;;5091511;28;979;-37
2022/04/17 07:37:36;;;;;;;;;;;24.10;39.60;;;;;;5091627;28;1902;-39
2022/04/17 07:40:03;;;;;;;;;;;24.00;39.50;;;;;;5091593;28;1017;-39
2022/04/17 07:42:30;;;;;;;;;;;24.00;39.50;;;;;;5090467;28;1294;-39
2022/04/17 07:44:57;;;;;;;;;;;24.10;39.60;;;;;;5089682;28;1032;-39
2022/04/17 07:47:25;;;;;;;;;;;24.10;39.60;;;;;;5093247;28;877;-42
2022/04/17 07:49:52;;;;;;;;;;;24.00;39.60;;;;;;5092431;28;934;-41
2022/04/17 07:52:19;;;;;;;;;;;24.00;39.60;;;;;;5092265;28;1035;-44
2022/04/17 07:54:47;;;;;;;;;;;24.10;39.60;;;;;;5092100;28;995;-39
2022/04/17 07:57:14;;;;;;;;;;;24.00;39.50;;;;;;5092270;28;1902;-38
2022/04/17 07:59:41;;;;;;;;;;;24.10;39.60;;;;;;5089668;28;984;-42
2022/04/17 08:02:22;;;;;;;;;;;24.10;39.60;;;;;;5089252;28;985;-41
2022/04/17 08:04:52;;;;;;;;;;;24.10;39.60;;;;;;5086963;28;978;-39
2022/04/17 08:07:18;;;;;;;;;;;24.00;39.60;;;;;;5088697;28;1483;-42
2022/04/17 08:09:45;;;;;;;;;;;24.10;39.70;;;;;;5086477;28;996;-42
2022/04/17 08:12:12;;;;;;;;;;;24.00;39.60;;;;;;5089796;28;968;-39
2022/04/17 08:14:39;;;;;;;;;;;24.10;39.60;;;;;;5088570;28;944;-39
2022/04/17 08:17:06;;;;;;;;;;;24.10;39.70;;;;;;5090653;28;1898;-42
2022/04/17 08:19:33;;;;;;;;;;;24.10;39.70;;;;;;5087798;28;1652;-41
2022/04/17 08:22:01;;;;;;;;;;;24.10;39.60;;;;;;5086855;28;849;-41
2022/04/17 08:24:30;;;;;;;;;;;24.00;39.70;;;;;;5088166;28;995;-39
2022/04/17 08:26:58;;;;;;;;;;;24.10;39.70;;;;;;5087018;28;989;-40
2022/04/17 08:29:25;;;;;;;;;;;24.10;39.60;;;;;;5087482;28;932;-41
2022/04/17 08:31:52;;;;;;;;;;;24.10;39.80;;;;;;5089478;28;1015;-43
2022/04/17 08:34:18;;;;;;;;;;;24.10;39.80;;;;;;5088345;28;924;-39
2022/04/17 08:36:45;;;;;;;;;;;24.10;39.70;;;;;;5088798;28;1001;-40
2022/04/17 08:39:13;;;;;;;;;;;24.10;39.80;;;;;;5088906;28;1970;-41
2022/04/17 08:41:43;;;;;;;;;;;24.00;39.90;;;;;;5087972;28;1854;-43
2022/04/17 08:44:10;;;;;;;;;;;24.10;39.90;;;;;;5088748;28;663;-42
2022/04/17 08:46:37;;;;;;;;;;;24.10;40.00;;;;;;5088789;28;1030;-41
2022/04/17 08:49:03;;;;;;;;;;;24.10;39.90;;;;;;5089362;28;1007;-39
2022/04/17 08:51:32;;;;;;;;;;;24.10;40.00;;;;;;5091032;28;1017;-39
2022/04/17 08:53:59;;;;;;;;;;;24.10;40.00;;;;;;5091513;28;1021;-40
2022/04/17 08:56:27;;;;;;;;;;;24.10;40.00;;;;;;5088710;28;951;-40
2022/04/17 08:58:54;;;;;;;;;;;24.10;39.90;;;;;;5087781;28;1986;-39
2022/04/17 09:01:22;;;;;;;;;;;24.10;40.00;;;;;;5088279;28;921;-42
2022/04/17 09:03:49;;;;;;;;;;;24.10;39.90;;;;;;5088561;28;988;-39
2022/04/17 09:06:18;;;;;;;;;;;24.10;39.90;;;;;;5088442;28;892;-44
2022/04/17 09:08:56;;;;;;;;;;;24.10;39.90;;;;;;5084844;28;912;-42
2022/04/17 09:11:25;;;;;;;;;;;24.10;39.90;;;;;;5088082;28;968;-39
2022/04/17 09:13:55;;;;;;;;;;;24.10;40.00;;;;;;5088384;28;1043;-42
2022/04/17 09:16:26;;;;;;;;;;;24.10;39.80;;;;;;5089424;28;1036;-39
2022/04/17 09:18:52;;;;;;;;;;;24.10;39.70;;;;;;5088731;28;1967;-39
2022/04/17 09:21:28;;;;;;;;;;;24.10;39.80;;;;;;5090899;28;1000;-42
2022/04/17 09:23:55;;;;;;;;;;;24.10;39.90;;;;;;5091283;28;1888;-41
2022/04/17 09:26:24;;;;;;;;;;;24.10;39.90;;;;;;5092352;28;1029;-41
2022/04/17 09:28:51;;;;;;;;;;;24.10;39.90;;;;;;5093648;28;827;-41
2022/04/17 09:31:19;;;;;;;;;;;24.10;39.90;;;;;;5091900;28;1007;-39
2022/04/17 09:33:49;;;;;;;;;;;24.20;40.00;;;;;;5093066;28;989;-40
2022/04/17 09:36:16;;;;;;;;;;;24.10;40.00;;;;;;5092087;28;876;-38
2022/04/17 09:38:47;;;;;;;;;;;24.10;40.00;;;;;;5091909;28;1977;-38
2022/04/17 09:41:14;;;;;;;;;;;24.10;40.00;;;;;;5092567;28;1003;-43
2022/04/17 09:43:42;;;;;;;;;;;24.10;40.00;;;;;;5092149;28;987;-41
2022/04/17 09:46:09;;;;;;;;;;;24.10;39.80;;;;;;5091772;28;1015;-39
2022/04/17 09:48:38;;;;;;;;;;;24.20;39.70;;;;;;5091891;28;1012;-39
2022/04/17 09:51:19;;;;;;;;;;;24.30;39.30;;;;;;5092620;28;928;-41
2022/04/17 09:53:56;;;;;;;;;;;24.30;39.50;;;;;;5091850;28;943;-39
2022/04/17 09:56:31;;;;;;;;;;;24.50;39.50;;;;;;5092857;28;1000;-40
2022/04/17 09:58:59;;;;;;;;;;;24.40;39.50;;;;;;5094446;28;1905;-43
2022/04/17 10:01:27;;;;;;;;;;;24.40;39.60;;;;;;5096074;28;989;-43
2022/04/17 10:03:56;;;;;;;;;;;24.40;39.50;;;;;;5092403;28;997;-42
2022/04/17 10:06:23;;;;;;;;;;;24.40;39.00;;;;;;5091180;28;1017;-40
2022/04/17 10:08:51;;;;;;;;;;;24.40;38.50;;;;;;5089433;28;948;-43
2022/04/17 10:11:18;;;;;;;;;;;24.40;37.60;;;;;;5090856;28;927;-43
2022/04/17 10:13:46;;;;;;;;;;;24.40;39.00;;;;;;5091358;28;973;-44
2022/04/17 10:16:14;;;;;;;;;;;24.30;38.80;;;;;;5091310;28;880;-44
2022/04/17 10:18:41;;;;;;;;;;;24.20;39.00;;;;;;5091733;28;1913;-44
2022/04/17 10:21:09;;;;;;;;;;;24.10;38.90;;;;;;5090266;28;999;-45
2022/04/17 10:23:37;;;;;;;;;;;24.00;39.00;;;;;;5090327;28;963;-42
2022/04/17 10:26:05;;;;;;;;;;;24.00;39.00;;;;;;5091913;28;1341;-42
2022/04/17 10:28:35;;;;;;;;;;;24.00;39.10;;;;;;5091788;28;984;-40
2022/04/17 10:31:10;;;;;;;;;;;24.00;38.80;;;;;;5090595;28;980;-41
2022/04/17 10:33:44;;;;;;;;;;;24.00;38.70;;;;;;5093684;28;1039;-41
2022/04/17 10:36:21;;;;;;;;;;;24.00;38.60;;;;;;5092758;28;984;-41
2022/04/17 10:38:55;;;;;;;;;;;24.10;38.80;;;;;;5092839;28;1914;-43
2022/04/17 10:41:23;;;;;;;;;;;24.20;38.00;;;;;;5093061;28;999;-43
2022/04/17 10:43:59;;;;;;;;;;;24.20;38.40;;;;;;5092783;28;710;-44
2022/04/17 10:46:26;;;;;;;;;;;24.20;38.40;;;;;;5093232;28;1012;-44
2022/04/17 10:48:55;;;;;;;;;;;24.10;38.00;;;;;;5092192;28;897;-42
2022/04/17 10:51:24;;;;;;;;;;;24.30;38.40;;;;;;5091965;28;1013;-43
2022/04/17 10:54:03;;;;;;;;;;;24.20;38.30;;;;;;5091654;28;924;-44
2022/04/17 10:56:32;;;;;;;;;;;24.20;38.20;;;;;;5090270;28;984;-43
2022/04/17 10:59:00;;;;;;;;;;;24.20;38.20;;;;;;5090938;28;1982;-40
2022/04/17 11:01:42;;;;;;;;;;;24.20;37.80;;;;;;5091587;28;908;-43
2022/04/17 11:04:15;;;;;;;;;;;24.20;37.60;;;;;;5069894;28;1049;-43
2022/04/17 11:06:44;;;;;;;;;;;24.20;37.60;;;;;;5092257;28;1029;-43
2022/04/17 11:09:12;;;;;;;;;;;24.20;37.50;;;;;;5092817;28;1047;-47
2022/04/17 11:11:40;;;;;;;;;;;24.10;37.40;;;;;;5093400;28;1350;-46
2022/04/17 11:14:11;;;;;;;;;;;24.20;37.30;;;;;;5093962;28;1840;-47
2022/04/17 11:16:39;;;;;;;;;;;24.20;37.30;;;;;;5093539;28;1356;-48
2022/04/17 11:19:10;;;;;;;;;;;24.20;37.20;;;;;;5091723;28;2000;-47
2022/04/17 11:21:37;;;;;;;;;;;24.20;37.10;;;;;;5091365;28;993;-47
2022/04/17 11:24:05;;;;;;;;;;;24.20;37.10;;;;;;5090552;28;987;-47
2022/04/17 11:26:52;;;;;;;;;;;24.20;37.30;;;;;;5089197;28;1035;-48
2022/04/17 11:29:33;;;;;;;;;;;24.20;37.40;;;;;;5092058;28;1034;-47
2022/04/17 11:32:00;;;;;;;;;;;24.20;37.30;;;;;;5092508;28;1018;-47
2022/04/17 11:34:41;;;;;;;;;;;24.20;37.30;;;;;;5091573;28;985;-48
2022/04/17 11:37:07;;;;;;;;;;;24.20;37.20;;;;;;5091836;28;869;-47
2022/04/17 11:39:36;;;;;;;;;;;24.20;37.10;;;;;;5091907;28;1906;-48
2022/04/17 11:42:05;;;;;;;;;;;24.10;37.20;;;;;;5091724;28;947;-48
2022/04/17 11:44:32;;;;;;;;;;;24.10;37.30;;;;;;5090342;28;1096;-47
2022/04/17 11:46:59;;;;;;;;;;;24.10;37.30;;;;;;5090448;28;1206;-47
2022/04/17 11:49:32;;;;;;;;;;;24.10;37.30;;;;;;5090471;28;1023;-47
2022/04/17 11:52:10;;;;;;;;;;;24.10;37.30;;;;;;5089304;28;1012;-47
2022/04/17 11:54:38;;;;;;;;;;;24.20;37.30;;;;;;5089236;28;951;-47
2022/04/17 11:57:05;;;;;;;;;;;24.20;37.40;;;;;;5077322;28;862;-47
2022/04/17 11:59:44;;;;;;;;;;;24.20;37.30;;;;;;5083795;28;1902;-47
2022/04/17 12:02:13;;;;;;;;;;;24.20;37.30;;;;;;5090023;28;935;-47
2022/04/17 12:04:40;;;;;;;;;;;24.20;37.20;;;;;;5089845;28;933;-48
2022/04/17 12:07:06;;;;;;;;;;;24.20;37.20;;;;;;5091458;28;1033;-47
2022/04/17 12:09:33;;;;;;;;;;;24.20;37.40;;;;;;5092918;28;1004;-47
2022/04/17 12:12:01;;;;;;;;;;;24.10;37.70;;;;;;5091903;28;1001;-47
2022/04/17 12:14:29;;;;;;;;;;;24.10;38.00;;;;;;5092250;28;924;-47
2022/04/17 12:16:55;;;;;;;;;;;24.10;37.90;;;;;;5092480;28;928;-48
2022/04/17 12:19:22;;;;;;;;;;;24.10;38.10;;;;;;5093312;28;1987;-48
2022/04/17 12:21:49;;;;;;;;;;;24.20;38.20;;;;;;5089470;28;1021;-48
2022/04/17 12:24:16;;;;;;;;;;;24.20;38.40;;;;;;5090554;28;1011;-48
2022/04/17 12:26:43;;;;;;;;;;;24.20;38.50;;;;;;5090778;28;1036;-48
2022/04/17 12:29:11;;;;;;;;;;;24.20;38.50;;;;;;5091174;28;901;-47
2022/04/17 12:31:38;;;;;;;;;;;24.10;38.70;;;;;;5090081;28;996;-47
2022/04/17 12:34:08;;;;;;;;;;;24.10;38.80;;;;;;5088221;28;961;-48
2022/04/17 12:36:37;;;;;;;;;;;24.10;38.70;;;;;;5090421;28;978;-48
2022/04/17 12:39:04;;;;;;;;;;;24.10;38.70;;;;;;5089021;28;1902;-48
2022/04/17 12:41:38;;;;;;;;;;;24.10;38.80;;;;;;5089537;28;1041;-47
2022/04/17 12:44:05;;;;;;;;;;;24.20;39.00;;;;;;5088279;28;981;-47
2022/04/17 12:46:33;;;;;;;;;;;24.20;39.00;;;;;;5088167;28;1023;-48
2022/04/17 12:49:07;;;;;;;;;;;24.20;40.20;;;;;;5088554;28;1023;-48
2022/04/17 12:51:34;;;;;;;;;;;24.20;39.10;;;;;;5089879;28;1047;-48
2022/04/17 12:54:01;;;;;;;;;;;24.20;39.10;;;;;;5088145;28;928;-48
2022/04/17 12:56:28;;;;;;;;;;;24.20;39.20;;;;;;5082343;28;888;-48
2022/04/17 12:58:55;;;;;;;;;;;24.20;39.30;;;;;;5070986;28;1903;-39
2022/04/17 13:01:22;;;;;;;;;;;24.20;39.50;;;;;;5074703;28;1037;-39
2022/04/17 13:03:51;;;;;;;;;;;24.20;39.30;;;;;;5086628;28;905;-39
2022/04/17 13:06:22;;;;;;;;;;;24.20;39.30;;;;;;5089497;28;1007;-39
2022/04/17 13:09:02;;;;;;;;;;;24.30;39.40;;;;;;5091533;28;995;-38
2022/04/17 13:11:30;;;;;;;;;;;24.30;39.50;;;;;;5090990;28;999;-39
2022/04/17 13:14:02;;;;;;;;;;;24.30;39.30;;;;;;5088136;28;924;-39
2022/04/17 13:16:29;;;;;;;;;;;24.30;39.30;;;;;;5091133;28;945;-39
2022/04/17 13:18:57;;;;;;;;;;;24.40;39.40;;;;;;5091028;28;1977;-39
2022/04/17 13:21:23;;;;;;;;;;;24.30;39.50;;;;;;5091673;28;971;-39
2022/04/17 13:23:50;;;;;;;;;;;24.30;39.70;;;;;;5091637;28;1000;-39
2022/04/17 13:26:18;;;;;;;;;;;24.40;39.40;;;;;;5089236;28;981;-39
2022/04/17 13:28:46;;;;;;;;;;;24.40;39.30;;;;;;5087787;28;1054;-39
2022/04/17 13:31:13;;;;;;;;;;;24.40;39.30;;;;;;5091104;28;1770;-39
2022/04/17 13:33:39;;;;;;;;;;;24.40;39.40;;;;;;5091031;28;1852;-39
2022/04/17 13:36:07;;;;;;;;;;;24.40;39.30;;;;;;5088748;28;1007;-39
2022/04/17 13:38:36;;;;;;;;;;;24.40;39.30;;;;;;5091034;28;1185;-39
2022/04/17 13:41:02;;;;;;;;;;;24.40;39.20;;;;;;5089974;28;1910;-39
2022/04/17 13:43:29;;;;;;;;;;;24.30;39.30;;;;;;5089616;28;927;-38
2022/04/17 13:45:57;;;;;;;;;;;24.40;39.50;;;;;;5090890;28;1032;-38
2022/04/17 13:48:25;;;;;;;;;;;24.40;39.40;;;;;;5089194;28;929;-38
2022/04/17 13:50:52;;;;;;;;;;;24.40;39.30;;;;;;5089069;28;1030;-38
2022/04/17 13:53:20;;;;;;;;;;;24.40;39.30;;;;;;5090418;28;992;-38
2022/04/17 13:55:47;;;;;;;;;;;24.40;39.30;;;;;;5088852;28;939;-38
2022/04/17 13:58:14;;;;;;;;;;;24.40;39.50;;;;;;5089536;28;905;-38
2022/04/17 14:00:41;;;;;;;;;;;24.30;39.40;;;;;;5089431;28;1902;-38
2022/04/17 14:03:07;;;;;;;;;;;24.40;39.50;;;;;;5089843;28;960;-38
2022/04/17 14:05:34;;;;;;;;;;;24.40;39.50;;;;;;5089265;28;1015;-38
2022/04/17 14:08:01;;;;;;;;;;;24.50;39.40;;;;;;5093285;28;929;-38
2022/04/17 14:10:29;;;;;;;;;;;24.50;39.30;;;;;;5090073;28;1008;-38
2022/04/17 14:12:56;;;;;;;;;;;24.60;39.30;;;;;;5090499;28;1004;-38
2022/04/17 14:15:23;;;;;;;;;;;24.60;39.30;;;;;;5087914;28;865;-38
2022/04/17 14:17:50;;;;;;;;;;;24.60;39.30;;;;;;5090512;28;1084;-38
2022/04/17 14:20:17;;;;;;;;;;;24.60;39.20;;;;;;5093572;28;1902;-38
2022/04/17 14:22:43;;;;;;;;;;;24.60;39.40;;;;;;5094123;28;865;-38
2022/04/17 14:25:10;;;;;;;;;;;24.60;39.30;;;;;;5094040;28;924;-38
2022/04/17 14:27:38;;;;;;;;;;;24.60;39.40;;;;;;5092549;28;1000;-38
2022/04/17 14:30:05;;;;;;;;;;;24.60;39.50;;;;;;5095271;28;1018;-38
2022/04/17 14:32:32;;;;;;;;;;;24.70;39.50;;;;;;5095564;28;931;-38
2022/04/17 14:34:58;;;;;;;;;;;24.70;39.40;;;;;;5096205;28;1006;-38
2022/04/17 14:37:25;;;;;;;;;;;24.70;39.40;;;;;;5089778;28;1011;-38
2022/04/17 14:39:52;;;;;;;;;;;24.80;39.60;;;;;;5090738;28;1969;-39
2022/04/17 14:42:19;;;;;;;;;;;24.80;39.50;;;;;;5091546;28;872;-38
2022/04/17 14:44:47;;;;;;;;;;;24.80;39.50;;;;;;5093406;28;932;-38
2022/04/17 14:47:14;;;;;;;;;;;24.90;39.70;;;;;;5093093;28;931;-37
2022/04/17 14:49:42;;;;;;;;;;;24.80;39.60;;;;;;5092587;28;971;-37
2022/04/17 14:52:09;;;;;;;;;;;24.80;39.70;;;;;;5092338;28;860;-38
2022/04/17 14:54:37;;;;;;;;;;;24.90;39.70;;;;;;5092324;28;992;-38
2022/04/17 14:57:04;;;;;;;;;;;24.90;39.70;;;;;;5091967;28;1001;-38